Frankfurt, Germany
Current Conditions -  °F | °C
As of 3:50 AM on Monday 24 Nov 2014 (Local Time) from EDDB Reporting Station
Clear Clear  
Wind Chill: 35°   Ceiling: Unl
Heat Index: 41°   Visibility: 6mi
Dew Point: 37°   Wind: 10mph
Humidity: 87%   Direction: 140°SE
Pressure: 30.09"   Gusts: NA
Location:  52.34°N, 14.55°E
Report Text: EDDB 240250Z 14009KT CAVOK 05/03 Q1019 NOSIG
Loading
Personal Weather Stations






























Interactive Weather Map New forecast layout! Learn more

10-Day Weather Forecast

Advertisements
Track Severe Weather on mobile